Time;durP1;ratioP1;P1;durP2;ratioP2;P2;SDS_P1;SDS_P2;PMS_P1;PMS_P2;Temp;Humidity;BMP_temperature;BMP_pressure;BME280_temperature;BME280_humidity;BME280_pressure;Samples;Min_cycle;Max_cycle;Signal;HPM_P1;HPM_P2
2021/04/25 00:00:26;;;;;;;2.80;1.97;;;;;;;19.78;42.25;99599.13;2060310;28;20121;-68
2021/04/25 00:01:27;;;;;;;7.60;2.80;;;;;;;19.77;42.37;99595.56;2057336;28;20474;-68
2021/04/25 00:02:27;;;;;;;3.43;2.17;;;;;;;19.77;42.20;99603.75;2061185;28;20137;-68
2021/04/25 00:03:28;;;;;;;4.47;1.90;;;;;;;19.77;42.08;99602.88;2061726;28;20026;-68
2021/04/25 00:04:28;;;;;;;4.30;2.27;;;;;;;19.77;42.20;99608.34;2061929;28;20388;-68
2021/04/25 00:05:29;;;;;;;4.97;2.40;;;;;;;19.77;42.27;99602.88;2061969;28;20040;-68
2021/04/25 00:06:29;;;;;;;4.00;2.77;;;;;;;19.77;42.25;99605.59;2062056;28;20083;-68
2021/04/25 00:07:30;;;;;;;3.20;2.17;;;;;;;19.77;42.19;99603.75;2061277;28;20144;-68
2021/04/25 00:08:31;;;;;;;4.10;2.43;;;;;;;19.78;42.28;99593.66;2061878;28;20030;-68
2021/04/25 00:09:32;;;;;;;4.15;2.22;;;;;;;19.75;42.32;99592.13;2061358;28;20484;-68
2021/04/25 00:10:33;;;;;;;3.83;2.27;;;;;;;19.76;42.42;99595.72;2059670;28;20034;-68
2021/04/25 00:11:34;;;;;;;3.50;2.27;;;;;;;19.77;42.28;99591.94;2056772;28;20061;-68
2021/04/25 00:12:34;;;;;;;2.88;2.10;;;;;;;19.77;42.31;99591.94;2066106;28;20030;-68
2021/04/25 00:13:35;;;;;;;3.13;2.10;;;;;;;19.75;42.19;99589.38;2064295;28;20026;-68
2021/04/25 00:14:35;;;;;;;3.23;2.00;;;;;;;19.76;42.10;99598.44;2061358;28;20425;-68
2021/04/25 00:15:36;;;;;;;3.33;2.40;;;;;;;19.76;42.28;99592.97;2060510;28;20042;-68
2021/04/25 00:16:36;;;;;;;3.27;2.70;;;;;;;19.76;42.31;99590.22;2055714;28;20433;-68
2021/04/25 00:17:37;;;;;;;3.20;1.90;;;;;;;19.75;42.35;99580.34;2061631;28;21483;-69
2021/04/25 00:18:38;;;;;;;2.90;2.13;;;;;;;19.74;42.24;99593.13;2062462;28;20093;-68
2021/04/25 00:19:39;;;;;;;5.80;2.15;;;;;;;19.76;42.07;99592.97;2060130;28;20053;-68
2021/04/25 00:20:39;;;;;;;3.50;1.90;;;;;;;19.75;42.22;99588.53;2059115;28;20647;-69
2021/04/25 00:21:40;;;;;;;3.60;2.20;;;;;;;19.75;42.15;99583.06;2056567;28;20022;-68
2021/04/25 00:22:41;;;;;;;3.70;2.13;;;;;;;19.75;42.17;99583.06;2061998;28;20121;-68
2021/04/25 00:23:41;;;;;;;2.97;1.93;;;;;;;19.74;42.15;99587.66;2062618;28;20034;-68
2021/04/25 00:24:42;;;;;;;5.67;2.17;;;;;;;19.75;42.27;99583.06;2061745;28;20512;-68
2021/04/25 00:25:42;;;;;;;4.77;2.27;;;;;;;19.74;42.19;99579.44;2060318;28;20042;-68
2021/04/25 00:26:43;;;;;;;4.03;2.10;;;;;;;19.74;42.21;99576.72;2059887;28;20034;-68
2021/04/25 00:27:44;;;;;;;3.87;2.37;;;;;;;19.74;42.37;99582.19;2062616;28;20031;-68
2021/04/25 00:28:45;;;;;;;2.63;1.90;;;;;;;19.75;42.29;99583.06;2062164;28;20038;-68
2021/04/25 00:29:45;;;;;;;3.60;2.40;;;;;;;19.74;42.27;99579.44;2058562;28;20496;-69
2021/04/25 00:30:46;;;;;;;3.10;2.20;;;;;;;19.73;42.16;99583.22;2062332;28;20629;-68
2021/04/25 00:31:46;;;;;;;4.33;2.27;;;;;;;19.75;42.17;99580.34;2061874;28;20041;-68
2021/04/25 00:32:47;;;;;;;4.90;2.20;;;;;;;19.74;42.23;99578.59;2060801;28;20026;-68
2021/04/25 00:33:47;;;;;;;3.13;2.20;;;;;;;19.75;42.30;99583.06;2061662;28;20030;-68
2021/04/25 00:34:48;;;;;;;3.23;2.00;;;;;;;19.74;42.28;99576.72;2068557;28;20034;-68
2021/04/25 00:35:48;;;;;;;3.10;2.10;;;;;;;19.74;42.24;99578.59;2061175;28;20473;-68
2021/04/25 00:36:49;;;;;;;3.03;2.03;;;;;;;19.74;42.21;99570.41;2061254;28;20038;-68
2021/04/25 00:37:49;;;;;;;3.67;2.20;;;;;;;19.75;42.22;99583.06;2061094;28;20088;-69
2021/04/25 00:38:50;;;;;;;4.07;2.57;;;;;;;19.74;42.31;99573.13;2062057;28;20038;-68
2021/04/25 00:39:50;;;;;;;2.63;1.97;;;;;;;19.73;42.34;99571.44;2062135;28;20037;-68
2021/04/25 00:40:51;;;;;;;7.67;2.47;;;;;;;19.73;42.32;99571.44;2062808;28;20029;-68
2021/04/25 00:41:51;;;;;;;3.87;2.30;;;;;;;19.75;42.24;99577.59;2057716;28;20037;-68
2021/04/25 00:42:52;;;;;;;3.73;2.50;;;;;;;19.74;42.32;99575.88;2062411;28;20057;-68
2021/04/25 00:43:54;;;;;;;2.83;2.37;;;;;;;19.75;42.51;99577.59;2060669;28;20477;-68
2021/04/25 00:44:54;;;;;;;;;;;;;;;19.68;42.44;99578.25;2058441;28;20464;-69
2021/04/25 00:45:55;;;;;;;4.13;2.22;;;;;;;19.69;42.51;99571.75;2057628;28;20737;-68
2021/04/25 00:46:55;;;;;;;4.17;2.20;;;;;;;19.70;42.54;99576.22;2062727;28;20033;-68
2021/04/25 00:47:56;;;;;;;3.10;2.17;;;;;;;19.70;42.43;99581.69;2063940;28;20062;-68
2021/04/25 00:48:56;;;;;;;3.10;2.27;;;;;;;19.69;42.39;99574.47;2059183;28;20574;-68
2021/04/25 00:49:57;;;;;;;3.57;2.00;;;;;;;19.70;42.50;99576.22;2060725;28;20033;-68
2021/04/25 00:50:58;;;;;;;2.40;1.90;;;;;;;19.70;42.52;99565.28;2060643;28;20755;-68
2021/04/25 00:51:58;;;;;;;2.03;1.60;;;;;;;19.72;42.41;99577.91;2061829;28;20045;-68
2021/04/25 00:52:59;;;;;;;3.63;2.10;;;;;;;19.72;42.51;99572.44;2063031;28;20161;-68
2021/04/25 00:54:02;;;;;;;2.58;2.00;;;;;;;19.71;42.46;99566.13;2056215;28;20158;-68
2021/04/25 00:55:06;;;;;;;3.15;2.22;;;;;;;19.71;42.43;99579.78;2055178;28;20122;-68
2021/04/25 00:56:07;;;;;;;2.78;2.47;;;;;;;19.70;42.48;99576.22;2054776;28;20121;-68
2021/04/25 00:57:13;;;;;;;2.60;1.83;;;;;;;19.74;42.40;99573.13;2062975;28;20026;-68
2021/04/25 00:58:15;;;;;;;3.78;1.95;;;;;;;19.72;42.41;99569.72;2063355;28;20607;-68
2021/04/25 00:59:15;;;;;;;3.25;2.28;;;;;;;19.70;42.40;99565.28;2063386;28;20034;-68
2021/04/25 01:00:16;;;;;;;2.97;2.27;;;;;;;19.72;42.54;99566.97;2061259;28;20041;-69
2021/04/25 01:01:18;;;;;;;3.90;2.07;;;;;;;19.72;42.39;99561.50;2064011;28;20062;-68
2021/04/25 01:02:18;;;;;;;3.45;2.63;;;;;;;19.70;42.41;99565.28;2061599;28;20073;-68
2021/04/25 01:03:22;;;;;;;2.97;2.17;;;;;;;19.70;42.44;99557.06;2062899;28;20034;-68
2021/04/25 01:04:23;;;;;;;2.97;1.98;;;;;;;19.72;42.37;99566.97;2062594;28;20038;-68
2021/04/25 01:05:24;;;;;;;2.60;1.90;;;;;;;19.73;42.40;99563.22;2061515;28;20073;-69
2021/04/25 01:06:24;;;;;;;4.00;2.67;;;;;;;19.72;42.43;99556.03;2062122;28;20045;-68
2021/04/25 01:07:25;;;;;;;2.67;1.83;;;;;;;19.73;42.48;99563.22;2062140;28;20101;-68
2021/04/25 01:08:25;;;;;;;2.93;2.00;;;;;;;19.73;42.40;99564.09;2063040;28;20748;-68
2021/04/25 01:09:25;;;;;;;2.50;1.90;;;;;;;19.72;42.35;99561.50;2062779;28;20470;-68
2021/04/25 01:10:27;;;;;;;3.87;2.37;;;;;;;19.72;42.26;99561.50;2058748;28;20030;-69
2021/04/25 01:11:28;;;;;;;;;;;;;;;19.68;42.49;99561.00;2063028;28;20378;-69
2021/04/25 01:12:29;;;;;;;3.63;2.00;;;;;;;19.68;42.40;99558.25;2062868;28;19996;-68
2021/04/25 01:13:30;;;;;;;2.50;1.77;;;;;;;19.68;42.40;99555.53;2057313;28;20076;-69
2021/04/25 01:14:30;;;;;;;2.90;2.00;;;;;;;19.69;42.39;99563.53;2055593;28;20320;-68
2021/04/25 01:15:31;;;;;;;3.83;2.20;;;;;;;19.70;42.28;99558.94;2056053;28;20081;-68
2021/04/25 01:16:31;;;;;;;3.90;2.37;;;;;;;19.70;42.34;99557.06;2056065;28;20022;-69
2021/04/25 01:17:33;;;;;;;3.80;2.03;;;;;;;19.69;42.20;99547.13;2063700;28;20034;-68
2021/04/25 01:18:33;;;;;;;3.97;2.30;;;;;;;19.72;42.43;99547.81;2062432;28;20061;-68
2021/04/25 01:19:33;;;;;;;3.27;2.23;;;;;;;19.70;42.35;99557.06;2063053;28;20839;-68
2021/04/25 01:20:34;;;;;;;3.23;2.17;;;;;;;19.72;42.24;99550.56;2060987;28;20061;-68
2021/04/25 01:21:34;;;;;;;3.67;2.20;;;;;;;19.70;42.35;99554.34;2063661;28;20533;-68
2021/04/25 01:22:35;;;;;;;4.33;2.20;;;;;;;19.72;42.10;99556.03;2059127;28;20035;-69
2021/04/25 01:23:36;;;;;;;4.70;2.63;;;;;;;19.71;42.39;99555.19;2061309;28;20066;-69
2021/04/25 01:24:36;;;;;;;2.23;2.03;;;;;;;19.71;42.27;99549.72;2059464;28;20026;-68
2021/04/25 01:25:37;;;;;;;2.93;2.27;;;;;;;19.70;42.34;99550.75;2061510;28;20040;-68
2021/04/25 01:26:38;;;;;;;3.43;2.43;;;;;;;19.70;42.40;99543.41;2059683;28;20026;-68
2021/04/25 01:27:39;;;;;;;2.10;1.83;;;;;;;19.70;42.40;99548.88;2062403;28;20060;-68
2021/04/25 01:29:26;;;;;;;2.33;1.97;;;;;;;19.69;42.39;99547.13;2061519;28;20031;-68
2021/04/25 01:30:30;;;;;;;2.20;1.83;;;;;;;19.67;42.44;99545.56;2060973;28;20607;-68
2021/04/25 01:31:31;;;;;;;2.65;1.98;;;;;;;19.67;42.41;99538.28;2063715;28;20466;-68
2021/04/25 01:32:32;;;;;;;4.18;2.05;;;;;;;19.68;42.36;99544.59;2062428;28;20469;-68
2021/04/25 01:33:33;;;;;;;4.22;1.95;;;;;;;19.67;42.42;99543.75;2063590;28;20089;-68
2021/04/25 01:34:34;;;;;;;2.40;1.92;;;;;;;19.69;42.32;99547.13;2059321;28;20033;-68
2021/04/25 01:35:35;;;;;;;4.05;2.00;;;;;;;19.68;42.34;99545.44;2059766;28;20489;-69
2021/04/25 01:36:35;;;;;;;1.90;1.70;;;;;;;19.69;42.36;99547.13;2063497;28;20053;-68
2021/04/25 01:37:36;;;;;;;2.57;1.97;;;;;;;19.69;42.28;99541.66;2062320;28;20069;-68
2021/04/25 01:38:37;;;;;;;2.50;2.10;;;;;;;19.68;42.31;99539.97;2062840;28;20065;-68
2021/04/25 01:39:38;;;;;;;3.33;2.10;;;;;;;19.69;42.40;99538.94;2063501;28;20053;-68
2021/04/25 01:40:38;;;;;;;3.60;2.20;;;;;;;19.69;42.47;99541.66;2062200;28;20034;-69
2021/04/25 01:41:39;;;;;;;2.97;2.13;;;;;;;19.69;42.31;99538.09;2056829;28;20145;-68
2021/04/25 01:42:39;;;;;;;3.90;2.53;;;;;;;19.69;42.32;99538.94;2060407;28;20847;-68
2021/04/25 01:43:40;;;;;;;2.30;1.73;;;;;;;19.68;42.28;99534.50;2063706;28;20140;-68
2021/04/25 01:44:40;;;;;;;2.57;2.00;;;;;;;19.69;42.39;99541.66;2062290;28;20030;-68
2021/04/25 01:45:41;;;;;;;3.90;2.33;;;;;;;19.68;42.42;99550.91;2063737;28;20031;-68
2021/04/25 01:46:41;;;;;;;3.33;1.80;;;;;;;19.69;42.42;99538.09;2062136;28;20508;-69
2021/04/25 01:47:46;;;;;;;2.93;2.40;;;;;;;19.68;42.40;99544.59;2062308;28;20026;-68
2021/04/25 01:48:47;;;;;;;2.38;1.92;;;;;;;19.68;42.43;99545.44;2062670;28;20057;-68
2021/04/25 01:49:47;;;;;;;3.03;2.07;;;;;;;19.69;42.33;99538.94;2063261;28;20022;-68
2021/04/25 01:50:48;;;;;;;2.60;1.90;;;;;;;19.69;42.46;99536.19;2060492;28;20026;-68
2021/04/25 01:51:48;;;;;;;4.60;1.83;;;;;;;19.68;42.44;99537.22;2060735;28;20030;-69
2021/04/25 01:52:50;;;;;;;6.70;2.23;;;;;;;19.68;42.47;99537.22;2062977;28;20033;-68
2021/04/25 01:53:50;;;;;;;4.30;2.28;;;;;;;19.67;42.36;99537.34;2062157;28;20112;-68
2021/04/25 01:54:51;;;;;;;3.30;1.93;;;;;;;19.68;42.34;99537.22;2062719;28;20080;-68
2021/04/25 01:55:51;;;;;;;3.67;2.17;;;;;;;19.69;42.27;99529.88;2062446;28;20749;-68
2021/04/25 01:56:52;;;;;;;3.07;2.10;;;;;;;19.68;42.36;99534.50;2062877;28;20057;-68
2021/04/25 01:57:52;;;;;;;2.77;2.23;;;;;;;19.68;42.42;99534.50;2062428;28;20076;-68
2021/04/25 01:58:53;;;;;;;3.00;1.80;;;;;;;19.69;42.26;99529.88;2063248;28;20104;-68
2021/04/25 01:59:53;;;;;;;3.03;2.20;;;;;;;19.68;42.36;99533.66;2060773;28;20054;-68
2021/04/25 02:01:12;;;;;;;2.33;1.93;;;;;;;19.66;42.44;99536.50;2061796;28;20096;-68
2021/04/25 02:02:12;;;;;;;3.72;2.15;;;;;;;19.67;42.48;99530.06;2059909;28;20026;-68
2021/04/25 02:03:14;;;;;;;3.10;2.10;;;;;;;19.66;42.49;99531.03;2060938;28;20034;-69
2021/04/25 02:04:42;;;;;;;;;;;;;;;19.62;42.63;99529.69;2062770;28;20054;-68
2021/04/25 02:05:49;;;;;;;3.08;2.17;;;;;;;19.62;42.61;99524.22;2060237;28;19924;-68
2021/04/25 02:06:49;;;;;;;1.98;1.73;;;;;;;19.63;42.55;99536.84;2062761;28;20057;-68
2021/04/25 02:07:51;;;;;;;2.50;2.13;;;;;;;19.64;42.60;99524.03;2063478;28;20033;-68
2021/04/25 02:08:51;;;;;;;2.95;1.95;;;;;;;19.62;42.51;99526.94;2058310;28;20025;-68
2021/04/25 02:09:52;;;;;;;2.77;1.90;;;;;;;19.64;42.50;99524.88;2060952;28;20026;-68
2021/04/25 02:10:52;;;;;;;2.40;1.93;;;;;;;19.63;42.54;99525.91;2060876;28;20037;-68
2021/04/25 02:11:53;;;;;;;2.93;1.97;;;;;;;19.64;42.58;99527.63;2058030;28;20030;-68
2021/04/25 02:12:54;;;;;;;3.53;2.00;;;;;;;19.65;42.58;99526.59;2063216;28;20034;-68
2021/04/25 02:13:54;;;;;;;2.47;2.00;;;;;;;19.65;42.53;99525.75;2062569;28;20030;-68
2021/04/25 02:14:55;;;;;;;2.27;1.97;;;;;;;19.64;42.58;99522.16;2062459;28;20034;-68
2021/04/25 02:15:55;;;;;;;4.43;2.03;;;;;;;19.65;42.76;99517.56;2063055;28;20208;-68
2021/04/25 02:17:14;;;;;;;3.43;2.07;;;;;;;19.63;42.67;99522.34;2058096;28;20159;-68
2021/04/25 02:18:14;;;;;;;3.28;1.88;;;;;;;19.64;42.62;99516.69;2058006;28;20041;-69
2021/04/25 02:19:15;;;;;;;3.20;2.27;;;;;;;19.64;42.70;99521.28;2062393;28;20050;-68
2021/04/25 02:20:17;;;;;;;2.67;2.17;;;;;;;19.64;42.67;99516.69;2059545;28;20031;-68
2021/04/25 02:21:18;;;;;;;2.50;1.95;;;;;;;19.64;42.47;99516.69;2059752;28;20483;-68
2021/04/25 02:22:18;;;;;;;2.57;1.70;;;;;;;19.63;42.63;99514.97;2061099;28;20030;-68
2021/04/25 02:23:18;;;;;;;4.33;1.93;;;;;;;19.64;42.84;99524.88;2061219;28;20449;-68
2021/04/25 02:24:19;;;;;;;3.03;2.17;;;;;;;19.65;42.62;99517.56;2059231;28;20030;-68
2021/04/25 02:25:21;;;;;;;3.57;2.43;;;;;;;19.64;42.55;99519.41;2058481;28;20018;-68
2021/04/25 02:26:22;;;;;;;3.13;2.00;;;;;;;19.64;42.57;99522.16;2062421;28;20026;-68
2021/04/25 02:27:22;;;;;;;3.40;2.20;;;;;;;19.65;42.58;99518.41;2061389;28;20026;-68
2021/04/25 02:28:23;;;;;;;2.33;1.77;;;;;;;19.65;42.65;99529.34;2062282;28;20034;-68
2021/04/25 02:29:24;;;;;;;3.57;2.13;;;;;;;19.64;42.70;99519.41;2060724;28;20128;-68
2021/04/25 02:30:27;;;;;;;2.80;1.93;;;;;;;19.63;42.57;99520.44;2060405;28;20034;-69
2021/04/25 02:31:28;;;;;;;3.08;2.22;;;;;;;19.64;42.74;99516.69;2061083;28;20033;-68
2021/04/25 02:32:28;;;;;;;2.53;2.00;;;;;;;19.64;42.59;99516.69;2063003;28;20033;-68
2021/04/25 02:33:28;;;;;;;3.43;1.77;;;;;;;19.64;42.52;99522.16;2062727;28;20040;-68
2021/04/25 02:34:29;;;;;;;2.40;1.90;;;;;;;19.64;42.59;99515.81;2057384;28;20022;-68
2021/04/25 02:35:30;;;;;;;2.83;1.97;;;;;;;19.64;42.66;99513.94;2062282;28;20050;-68
2021/04/25 02:36:31;;;;;;;2.63;2.20;;;;;;;19.64;42.45;99511.19;2062736;28;20033;-68
2021/04/25 02:37:32;;;;;;;1.97;1.57;;;;;;;19.63;42.63;99506.78;2062601;28;20125;-68
2021/04/25 02:38:32;;;;;;;2.83;1.80;;;;;;;19.64;42.55;99511.19;2062962;28;20031;-69
2021/04/25 02:39:33;;;;;;;2.63;2.10;;;;;;;19.64;42.62;99511.19;2056781;28;20072;-68
2021/04/25 02:40:35;;;;;;;2.80;1.90;;;;;;;19.62;42.65;99507.81;2060477;28;20057;-68
2021/04/25 02:41:36;;;;;;;1.80;1.70;;;;;;;19.64;42.58;99504.88;2059388;28;20791;-68
2021/04/25 02:42:38;;;;;;;2.30;2.03;;;;;;;19.63;42.55;99504.03;2061244;28;20370;-68
2021/04/25 02:43:38;;;;;;;2.42;1.88;;;;;;;19.63;42.79;99508.66;2062650;28;20433;-68
2021/04/25 02:44:39;;;;;;;2.83;1.87;;;;;;;19.63;42.64;99514.97;2060949;28;20067;-68
2021/04/25 02:45:39;;;;;;;3.77;2.20;;;;;;;19.63;42.79;99509.50;2062835;28;20042;-68
2021/04/25 02:46:40;;;;;;;2.23;1.73;;;;;;;19.62;42.61;99518.75;2057678;28;20030;-69
2021/04/25 02:47:52;;;;;;;3.43;2.20;;;;;;;19.62;42.70;99513.28;2062199;28;20030;-69
2021/04/25 02:48:52;;;;;;;2.90;1.85;;;;;;;19.62;42.70;99513.28;2062203;28;20026;-69
2021/04/25 02:49:53;;;;;;;2.80;1.90;;;;;;;19.61;42.71;99507.97;2055934;28;20034;-68
2021/04/25 02:50:54;;;;;;;2.33;1.77;;;;;;;19.62;42.57;99513.28;2058840;28;20026;-68
2021/04/25 02:51:54;;;;;;;2.87;2.07;;;;;;;19.62;42.68;99506.94;2061025;28;20030;-68
2021/04/25 02:52:55;;;;;;;2.33;1.83;;;;;;;19.62;42.71;99506.94;2060292;28;20119;-68
2021/04/25 02:53:55;;;;;;;3.80;2.13;;;;;;;19.62;42.70;99506.94;2062169;28;20708;-68
2021/04/25 02:54:56;;;;;;;2.60;2.23;;;;;;;19.62;42.77;99507.81;2062646;28;20485;-68
2021/04/25 02:55:56;;;;;;;3.03;1.80;;;;;;;19.62;42.69;99505.06;2062810;28;20042;-68
2021/04/25 02:56:57;;;;;;;2.20;2.00;;;;;;;19.62;42.72;99506.94;2055293;28;20035;-69
2021/04/25 02:57:57;;;;;;;2.50;2.10;;;;;;;19.62;42.70;99507.81;2059119;28;20022;-68
2021/04/25 02:58:58;;;;;;;2.73;1.87;;;;;;;19.62;42.73;99507.81;2055626;28;20114;-68
2021/04/25 02:59:58;;;;;;;2.00;1.57;;;;;;;19.62;42.83;99507.81;2062638;28;20060;-68
2021/04/25 03:00:59;;;;;;;3.33;2.07;;;;;;;19.61;42.70;99513.44;2062118;28;20026;-69
2021/04/25 03:01:59;;;;;;;2.07;1.87;;;;;;;19.61;42.79;99505.22;2057124;28;20698;-68
2021/04/25 03:03:00;;;;;;;2.70;1.87;;;;;;;19.60;42.75;99501.66;2059563;28;20084;-68
2021/04/25 03:04:01;;;;;;;3.37;2.17;;;;;;;19.61;42.84;99499.75;2055604;28;20062;-68
2021/04/25 03:05:01;;;;;;;2.27;1.83;;;;;;;19.61;42.80;99502.50;2060153;28;20037;-68
2021/04/25 03:06:02;;;;;;;3.10;2.10;;;;;;;19.60;42.89;99501.66;2062409;28;20088;-68
2021/04/25 03:07:02;;;;;;;2.40;1.67;;;;;;;19.61;42.79;99488.81;2059094;28;20030;-68
2021/04/25 03:08:03;;;;;;;2.03;1.70;;;;;;;19.60;42.89;99496.19;2059965;28;20494;-68
2021/04/25 03:09:22;;;;;;;2.30;1.67;;;;;;;19.57;42.92;99499.22;2055221;28;20026;-68
2021/04/25 03:10:25;;;;;;;7.07;1.98;;;;;;;19.58;42.98;99490.03;2062605;28;20049;-68
2021/04/25 03:11:25;;;;;;;2.80;1.90;;;;;;;19.58;42.87;99495.50;2062103;28;20137;-68
2021/04/25 03:12:26;;;;;;;2.63;1.87;;;;;;;19.59;42.92;99501.81;2064071;28;20049;-68
2021/04/25 03:13:26;;;;;;;3.77;2.30;;;;;;;19.59;42.81;99493.59;2062297;28;20807;-68
2021/04/25 03:14:27;;;;;;;3.30;2.40;;;;;;;19.60;42.90;99487.09;2062693;28;20049;-68
2021/04/25 03:15:27;;;;;;;4.00;2.00;;;;;;;19.58;42.91;99484.56;2058134;28;20276;-68
2021/04/25 03:16:28;;;;;;;2.40;1.70;;;;;;;19.58;42.71;99490.03;2061144;28;20037;-68
2021/04/25 03:17:29;;;;;;;2.90;2.10;;;;;;;19.59;42.81;99485.41;2058888;28;20402;-69
2021/04/25 03:18:29;;;;;;;4.33;2.37;;;;;;;19.58;42.82;99479.09;2062610;28;20026;-69
2021/04/25 03:19:30;;;;;;;2.57;1.77;;;;;;;19.59;42.92;99480.78;2062900;28;20113;-69
2021/04/25 03:20:30;;;;;;;2.63;1.87;;;;;;;19.58;42.92;99479.09;2062500;28;20120;-68
2021/04/25 03:21:31;;;;;;;3.07;1.77;;;;;;;19.58;42.94;99473.63;2062548;28;20030;-68
2021/04/25 03:22:31;;;;;;;3.07;2.03;;;;;;;19.58;42.92;99472.78;2060676;28;20645;-69
2021/04/25 03:23:32;;;;;;;2.93;2.07;;;;;;;19.57;42.83;99474.63;2060522;28;20030;-68
2021/04/25 03:24:33;;;;;;;2.30;1.87;;;;;;;19.58;42.90;99473.63;2061730;28;20030;-68
2021/04/25 03:25:33;;;;;;;2.43;2.07;;;;;;;19.57;42.97;99469.16;2059389;28;20659;-69
2021/04/25 03:26:34;;;;;;;2.67;1.90;;;;;;;19.58;42.88;99467.31;2056325;28;20034;-68
2021/04/25 03:27:35;;;;;;;2.57;2.00;;;;;;;19.57;43.06;99471.03;2062833;28;20034;-68
2021/04/25 03:28:35;;;;;;;3.03;1.90;;;;;;;19.57;42.92;99477.34;2062850;28;20037;-68
2021/04/25 03:29:36;;;;;;;2.30;2.07;;;;;;;19.58;42.88;99472.78;2063062;28;20044;-68
2021/04/25 03:30:36;;;;;;;4.27;2.30;;;;;;;19.57;43.04;99474.63;2059542;28;20018;-68
2021/04/25 03:31:37;;;;;;;2.93;2.03;;;;;;;19.57;42.90;99469.16;2055640;28;20097;-68
2021/04/25 03:32:37;;;;;;;2.90;2.17;;;;;;;19.57;43.04;99476.50;2060813;28;20026;-68
2021/04/25 03:33:38;;;;;;;2.60;1.67;;;;;;;19.57;43.16;99477.34;2063096;28;20045;-69
2021/04/25 03:34:38;;;;;;;2.60;1.73;;;;;;;19.57;43.07;99471.88;2062387;28;20474;-68
2021/04/25 03:35:39;;;;;;;2.20;1.90;;;;;;;19.56;43.06;99481.13;2059103;28;20476;-68
2021/04/25 03:36:39;;;;;;;3.07;1.80;;;;;;;19.56;43.07;99472.94;2046293;28;20208;-68
2021/04/25 03:37:40;;;;;;;2.17;1.93;;;;;;;19.55;42.99;99473.97;2056068;28;20514;-68
2021/04/25 03:38:40;;;;;;;3.27;2.30;;;;;;;19.57;42.97;99471.88;2056569;28;20053;-68
2021/04/25 03:39:41;;;;;;;3.70;1.90;;;;;;;19.56;43.00;99470.19;2057694;28;20105;-68
2021/04/25 03:40:41;;;;;;;2.33;1.70;;;;;;;19.56;42.99;99469.34;2058755;28;20034;-68
2021/04/25 03:41:42;;;;;;;2.30;1.93;;;;;;;19.56;42.97;99467.47;2062366;28;20030;-68
2021/04/25 03:42:42;;;;;;;3.03;2.10;;;;;;;19.56;43.05;99461.13;2059709;28;20065;-68
2021/04/25 03:43:43;;;;;;;2.93;1.80;;;;;;;19.55;43.02;99471.22;2056266;28;20078;-68
2021/04/25 03:44:43;;;;;;;2.70;1.97;;;;;;;19.56;42.93;99469.34;2062166;28;20421;-68
2021/04/25 03:45:44;;;;;;;2.10;1.73;;;;;;;19.55;43.05;99473.97;2062019;28;20034;-69
2021/04/25 03:46:44;;;;;;;2.90;1.83;;;;;;;19.56;43.29;99469.34;2055339;28;20050;-68
2021/04/25 03:47:49;;;;;;;2.03;1.63;;;;;;;19.56;43.07;99470.19;2060961;28;20022;-68
2021/04/25 03:48:50;;;;;;;1.92;1.70;;;;;;;19.56;43.05;99474.81;2063058;28;20113;-68
2021/04/25 03:49:50;;;;;;;3.17;1.90;;;;;;;19.55;43.17;99478.56;2061065;28;20030;-69
2021/04/25 03:50:50;;;;;;;2.47;2.00;;;;;;;19.54;43.00;99474.13;2062506;28;20046;-68
2021/04/25 03:51:54;;;;;;;2.57;1.77;;;;;;;19.53;43.10;99476.00;2062773;28;20113;-68
2021/04/25 03:52:55;;;;;;;1.92;1.75;;;;;;;19.53;43.15;99473.28;2060590;28;20406;-68
2021/04/25 03:53:55;;;;;;;3.13;1.83;;;;;;;19.54;43.06;99474.97;2062607;28;20075;-68
2021/04/25 03:54:56;;;;;;;2.43;1.90;;;;;;;19.53;43.26;99465.06;2058306;28;20062;-68
2021/04/25 03:55:56;;;;;;;2.60;2.00;;;;;;;19.54;43.21;99461.28;2059968;28;20041;-68
2021/04/25 03:56:57;;;;;;;4.60;1.93;;;;;;;19.54;43.10;99460.44;2062785;28;20440;-68
2021/04/25 03:57:57;;;;;;;3.67;2.03;;;;;;;19.55;43.25;99462.16;2059348;28;20130;-68
2021/04/25 03:59:00;;;;;;;2.30;1.80;;;;;;;19.54;43.14;99458.56;2056225;28;20022;-69
2021/04/25 04:00:01;;;;;;;2.13;1.73;;;;;;;19.53;43.11;99462.34;2061867;28;20041;-68
2021/04/25 04:01:02;;;;;;;3.10;1.80;;;;;;;19.53;43.16;99462.34;2062432;28;20799;-68
2021/04/25 04:02:02;;;;;;;2.53;1.83;;;;;;;19.54;43.23;99463.19;2061990;28;20093;-68
2021/04/25 04:03:03;;;;;;;2.63;1.67;;;;;;;19.53;43.18;99459.59;2061783;28;20042;-68
2021/04/25 04:04:04;;;;;;;4.20;1.80;;;;;;;19.52;43.23;99463.34;2061982;28;20038;-68
2021/04/25 04:05:05;;;;;;;2.50;1.90;;;;;;;19.53;43.25;99465.06;2061844;28;20049;-68
2021/04/25 04:06:06;;;;;;;2.58;1.92;;;;;;;19.53;43.17;99470.53;2060684;28;20042;-69
2021/04/25 04:07:06;;;;;;;1.70;1.43;;;;;;;19.52;43.07;99471.53;2062823;28;20041;-68
2021/04/25 04:08:07;;;;;;;3.80;2.10;;;;;;;19.54;43.19;99471.38;2061502;28;20038;-68
2021/04/25 04:09:07;;;;;;;2.43;1.77;;;;;;;19.53;43.31;99470.53;2062026;28;20058;-69
2021/04/25 04:10:08;;;;;;;1.70;1.40;;;;;;;19.53;43.23;99476.00;2062299;28;20034;-69
2021/04/25 04:11:09;;;;;;;1.63;1.45;;;;;;;19.53;43.19;99476.00;2062080;28;20498;-68
2021/04/25 04:12:10;;;;;;;2.03;1.50;;;;;;;19.53;43.15;99472.41;2061478;28;20129;-68
2021/04/25 04:13:10;;;;;;;2.73;2.10;;;;;;;19.53;43.20;99480.63;2062235;28;20026;-69
2021/04/25 04:14:11;;;;;;;1.87;1.63;;;;;;;19.53;43.14;99476.00;2055999;28;20105;-68
2021/04/25 04:15:12;;;;;;;1.70;1.60;;;;;;;19.52;43.31;99474.28;2062208;28;20729;-69
2021/04/25 04:16:13;;;;;;;3.13;1.90;;;;;;;19.52;43.19;99474.28;2062320;28;20034;-68
2021/04/25 04:17:13;;;;;;;3.13;2.03;;;;;;;19.52;43.24;99473.44;2062760;28;20107;-68
2021/04/25 04:18:14;;;;;;;1.97;1.70;;;;;;;19.52;43.16;99471.53;2061426;28;20109;-68
2021/04/25 04:19:14;;;;;;;3.70;1.97;;;;;;;19.52;43.20;99474.28;2063672;28;20537;-68
2021/04/25 04:20:15;;;;;;;3.13;2.33;;;;;;;19.52;43.19;99468.81;2059415;28;20062;-68
2021/04/25 04:21:16;;;;;;;2.20;1.60;;;;;;;19.52;43.14;99468.81;2059543;28;20034;-68
2021/04/25 04:22:16;;;;;;;3.17;1.83;;;;;;;19.51;43.23;99469.84;2061568;28;20026;-68
2021/04/25 04:23:17;;;;;;;2.90;1.60;;;;;;;19.51;43.23;99467.09;2062926;28;20417;-68
2021/04/25 04:24:17;;;;;;;5.33;2.07;;;;;;;19.52;43.26;99467.97;2064018;28;20097;-68
2021/04/25 04:25:19;;;;;;;2.00;1.80;;;;;;;19.52;43.29;99467.97;2063793;28;20026;-68
2021/04/25 04:26:21;;;;;;;2.28;1.73;;;;;;;19.52;43.23;99459.75;2064375;28;20026;-68
2021/04/25 04:27:21;;;;;;;2.03;1.70;;;;;;;19.51;43.33;99461.66;2063843;28;20481;-68
2021/04/25 04:28:22;;;;;;;2.07;1.70;;;;;;;19.51;43.28;99455.31;2063170;28;20030;-68
2021/04/25 04:29:34;;;;;;;2.17;1.80;;;;;;;19.48;43.46;99457.38;2064185;28;20030;-68
2021/04/25 04:31:12;;;;;;;2.35;1.77;;;;;;;19.47;43.30;99449.31;2059146;28;20038;-69
2021/04/25 04:32:12;;;;;;;2.03;1.75;;;;;;;19.47;43.35;99450.16;2059965;28;20037;-68
2021/04/25 04:34:08;;;;;;;1.80;1.57;;;;;;;19.47;43.46;99446.59;2064125;28;20029;-68
2021/04/25 04:35:10;;;;;;;2.70;1.50;;;;;;;19.45;43.49;99440.44;2060847;28;20778;-68
2021/04/25 04:36:10;;;;;;;2.47;1.60;;;;;;;19.47;43.38;99443.84;2064059;28;20070;-68
2021/04/25 04:37:11;;;;;;;2.40;1.83;;;;;;;19.46;43.38;99442.16;2063329;28;20034;-68
2021/04/25 04:38:11;;;;;;;1.97;1.77;;;;;;;19.48;43.40;99440.13;2063472;28;20048;-68
2021/04/25 04:39:12;;;;;;;2.40;1.70;;;;;;;19.48;43.28;99445.59;2064157;28;20060;-68
2021/04/25 04:40:14;;;;;;;2.13;1.70;;;;;;;19.48;43.37;99445.59;2064349;28;20100;-68
2021/04/25 04:41:14;;;;;;;2.40;1.50;;;;;;;19.47;43.29;99444.69;2061284;28;20019;-68
2021/04/25 04:42:14;;;;;;;2.80;1.87;;;;;;;19.48;43.25;99440.13;2063864;28;20433;-68
2021/04/25 04:43:15;;;;;;;2.70;1.77;;;;;;;19.48;43.20;99440.97;2062424;28;20038;-68
2021/04/25 04:44:16;;;;;;;3.13;1.73;;;;;;;19.49;43.38;99439.09;2063107;28;20038;-68
2021/04/25 04:45:17;;;;;;;1.88;1.60;;;;;;;19.48;43.33;99440.13;2064237;28;20026;-68
2021/04/25 04:46:17;;;;;;;3.00;2.33;;;;;;;19.49;43.22;99436.34;2062033;28;20033;-68
2021/04/25 04:47:18;;;;;;;2.63;1.87;;;;;;;19.49;43.30;99436.34;2064011;28;20026;-68
2021/04/25 04:48:19;;;;;;;2.83;1.97;;;;;;;19.48;43.40;99434.66;2057894;28;20586;-68
2021/04/25 04:49:20;;;;;;;1.75;1.58;;;;;;;19.48;43.29;99448.31;2056958;28;20027;-68
2021/04/25 04:50:21;;;;;;;2.63;1.90;;;;;;;19.48;43.29;99437.38;2062714;28;20607;-68